Sinnamary, French Guiana
Current Conditions -  °F | °C
As of 11:30 AM on Thursday 30 Oct 2014 (Local Time) from SOCA Reporting Station
Broken Clouds Broken Clouds  
Wind Chill: 90°   Ceiling: 4100
Heat Index: 95°   Visibility: 6mi
Dew Point: 70°   Wind: 8mph
Humidity: 52%   Direction: 110°ESE
Pressure: 29.85"   Gusts: NA
Location:  5.02°N, 52.95°W
Report Text: SOCA 301430Z AUTO 11007KT 040V170 9999 BKN041/// 32/21 Q1011
Loading
Personal Weather Stations






























Interactive Weather Map
Tropical Storm Tracking
New forecast layout! Learn more

10-Day Weather Forecast

Advertisements
Track Severe Weather on mobile